首页
METAR-TAF:

METAR-TAF

机场 :

Accomack County Airport

Melfa, 弗吉尼亚州, 美国

纬度: 37-39N, 经度: 075-46W, 海拔: 15米

当前天气观测

该预报发布于2小时和53分钟前的07:15 UTC
风速4节,风向
温度 7°C
湿度 100%
气压 1025 hPa
能見度: 6.4公里
散云层高于1500英尺
多云层高于2400英尺
阴天层高于3600英尺
小雨

METAR: KMFV 150715Z AUTO 01004KT 4SM -RA SCT015 BKN024 OVC036 07/07 A3026 RMK AO2 P0005 T00720065

时间: 05:08 (10:08 UTC)


TAF: 丢失

超过4000个机场的气象观测和天气预报(METAR&TAF报告)。

可查询的气象台以黄色和红色小点在地图上表示。

将鼠标移到小点上方,可查看气象台名称。

然后点击查看天气观测和预报。

如需切换地图:点击带黑十字的绿色按钮放大地图;点击带横线的绿色按钮缩小地图;或者点击绿色箭头查看邻近地区的地图。


METAR-TAF: